sensor_id;sensor_type;location;lat;lon;timestamp;temperature;humidity
18575;DHT22;9417;16.484;102.872;2023-04-04T00:00:36;26.80;78.80
18575;DHT22;9417;16.484;102.872;2023-04-04T00:02:44;26.80;79.10
18575;DHT22;9417;16.484;102.872;2023-04-04T00:04:52;26.90;78.40
18575;DHT22;9417;16.484;102.872;2023-04-04T00:06:59;26.90;78.30
18575;DHT22;9417;16.484;102.872;2023-04-04T00:09:06;27.00;78.20
18575;DHT22;9417;16.484;102.872;2023-04-04T00:11:13;27.00;78.00
18575;DHT22;9417;16.484;102.872;2023-04-04T00:13:20;27.20;77.80
18575;DHT22;9417;16.484;102.872;2023-04-04T00:15:30;27.20;77.10
18575;DHT22;9417;16.484;102.872;2023-04-04T00:17:40;27.20;76.30
18575;DHT22;9417;16.484;102.872;2023-04-04T00:19:47;27.30;75.50
18575;DHT22;9417;16.484;102.872;2023-04-04T00:21:54;27.40;76.10
18575;DHT22;9417;16.484;102.872;2023-04-04T00:24:01;27.40;77.60
18575;DHT22;9417;16.484;102.872;2023-04-04T00:26:08;27.50;77.40
18575;DHT22;9417;16.484;102.872;2023-04-04T00:28:15;27.50;78.10
18575;DHT22;9417;16.484;102.872;2023-04-04T00:30:23;27.50;78.00
18575;DHT22;9417;16.484;102.872;2023-04-04T00:32:30;27.50;78.20
18575;DHT22;9417;16.484;102.872;2023-04-04T00:34:39;27.60;78.20
18575;DHT22;9417;16.484;102.872;2023-04-04T00:36:48;27.60;77.80
18575;DHT22;9417;16.484;102.872;2023-04-04T00:38:56;27.70;77.40
18575;DHT22;9417;16.484;102.872;2023-04-04T00:41:03;27.80;77.10
18575;DHT22;9417;16.484;102.872;2023-04-04T00:43:11;27.90;76.40
18575;DHT22;9417;16.484;102.872;2023-04-04T00:45:20;28.00;76.20
18575;DHT22;9417;16.484;102.872;2023-04-04T00:47:29;28.10;76.30
18575;DHT22;9417;16.484;102.872;2023-04-04T00:49:38;28.20;76.40
18575;DHT22;9417;16.484;102.872;2023-04-04T00:51:45;28.30;76.00
18575;DHT22;9417;16.484;102.872;2023-04-04T00:53:52;28.30;75.00
18575;DHT22;9417;16.484;102.872;2023-04-04T00:56:00;28.30;74.20
18575;DHT22;9417;16.484;102.872;2023-04-04T00:58:07;28.40;74.60
18575;DHT22;9417;16.484;102.872;2023-04-04T01:00:15;28.50;73.80
18575;DHT22;9417;16.484;102.872;2023-04-04T01:02:23;28.50;73.00
18575;DHT22;9417;16.484;102.872;2023-04-04T01:04:31;28.60;72.00
18575;DHT22;9417;16.484;102.872;2023-04-04T01:06:40;28.60;70.20
18575;DHT22;9417;16.484;102.872;2023-04-04T01:08:48;28.70;68.70
18575;DHT22;9417;16.484;102.872;2023-04-04T01:10:57;28.80;67.30
18575;DHT22;9417;16.484;102.872;2023-04-04T01:13:04;28.90;66.10
18575;DHT22;9417;16.484;102.872;2023-04-04T01:15:12;29.00;65.50
18575;DHT22;9417;16.484;102.872;2023-04-04T01:17:20;29.10;64.80
18575;DHT22;9417;16.484;102.872;2023-04-04T01:19:31;29.10;63.20
18575;DHT22;9417;16.484;102.872;2023-04-04T01:21:48;29.20;63.40
18575;DHT22;9417;16.484;102.872;2023-04-04T01:23:59;29.30;63.30
18575;DHT22;9417;16.484;102.872;2023-04-04T01:26:20;29.40;63.00
18575;DHT22;9417;16.484;102.872;2023-04-04T01:28:30;29.50;62.40
18575;DHT22;9417;16.484;102.872;2023-04-04T01:30:40;29.60;61.70
18575;DHT22;9417;16.484;102.872;2023-04-04T01:32:52;29.70;61.10
18575;DHT22;9417;16.484;102.872;2023-04-04T01:35:09;29.70;60.40
18575;DHT22;9417;16.484;102.872;2023-04-04T01:37:29;29.80;60.00
18575;DHT22;9417;16.484;102.872;2023-04-04T01:39:44;29.90;60.00
18575;DHT22;9417;16.484;102.872;2023-04-04T01:41:57;30.00;60.00
18575;DHT22;9417;16.484;102.872;2023-04-04T01:44:05;30.10;59.40
18575;DHT22;9417;16.484;102.872;2023-04-04T01:46:16;30.10;58.60
18575;DHT22;9417;16.484;102.872;2023-04-04T01:48:24;30.20;58.70
18575;DHT22;9417;16.484;102.872;2023-04-04T01:50:35;30.30;58.30
18575;DHT22;9417;16.484;102.872;2023-04-04T01:52:43;30.40;57.60
18575;DHT22;9417;16.484;102.872;2023-04-04T01:54:50;30.40;58.40
18575;DHT22;9417;16.484;102.872;2023-04-04T01:56:59;30.50;59.20
18575;DHT22;9417;16.484;102.872;2023-04-04T01:59:06;30.50;59.90
18575;DHT22;9417;16.484;102.872;2023-04-04T02:01:13;30.50;61.30
18575;DHT22;9417;16.484;102.872;2023-04-04T02:03:20;30.60;62.30
18575;DHT22;9417;16.484;102.872;2023-04-04T02:05:28;30.60;62.70
18575;DHT22;9417;16.484;102.872;2023-04-04T02:07:35;30.60;63.30
18575;DHT22;9417;16.484;102.872;2023-04-04T02:09:52;30.70;63.40
18575;DHT22;9417;16.484;102.872;2023-04-04T02:12:01;30.70;62.80
18575;DHT22;9417;16.484;102.872;2023-04-04T02:14:08;30.80;60.40
18575;DHT22;9417;16.484;102.872;2023-04-04T02:16:15;30.80;61.30
18575;DHT22;9417;16.484;102.872;2023-04-04T02:18:23;30.80;60.50
18575;DHT22;9417;16.484;102.872;2023-04-04T02:20:30;30.90;60.60
18575;DHT22;9417;16.484;102.872;2023-04-04T02:22:37;30.90;60.40
18575;DHT22;9417;16.484;102.872;2023-04-04T02:24:44;31.00;60.20
18575;DHT22;9417;16.484;102.872;2023-04-04T02:26:51;31.00;60.10
18575;DHT22;9417;16.484;102.872;2023-04-04T02:29:00;31.10;60.60
18575;DHT22;9417;16.484;102.872;2023-04-04T02:31:08;31.20;60.20
18575;DHT22;9417;16.484;102.872;2023-04-04T02:33:15;31.30;59.60
18575;DHT22;9417;16.484;102.872;2023-04-04T02:35:23;31.30;59.90
18575;DHT22;9417;16.484;102.872;2023-04-04T02:37:31;31.40;58.60
18575;DHT22;9417;16.484;102.872;2023-04-04T02:39:41;31.50;58.30
18575;DHT22;9417;16.484;102.872;2023-04-04T02:41:51;31.60;57.40
18575;DHT22;9417;16.484;102.872;2023-04-04T02:44:00;31.70;56.70
18575;DHT22;9417;16.484;102.872;2023-04-04T02:46:07;31.80;55.60
18575;DHT22;9417;16.484;102.872;2023-04-04T02:48:31;31.90;55.10
18575;DHT22;9417;16.484;102.872;2023-04-04T02:50:38;32.10;54.60
18575;DHT22;9417;16.484;102.872;2023-04-04T02:52:48;32.20;54.10
18575;DHT22;9417;16.484;102.872;2023-04-04T02:54:58;32.30;53.30
18575;DHT22;9417;16.484;102.872;2023-04-04T02:57:09;32.40;53.00
18575;DHT22;9417;16.484;102.872;2023-04-04T02:59:18;32.50;52.10
18575;DHT22;9417;16.484;102.872;2023-04-04T03:01:25;32.50;53.00
18575;DHT22;9417;16.484;102.872;2023-04-04T03:03:34;32.60;52.10
18575;DHT22;9417;16.484;102.872;2023-04-04T03:05:42;32.60;51.40
18575;DHT22;9417;16.484;102.872;2023-04-04T03:07:53;32.70;52.10
18575;DHT22;9417;16.484;102.872;2023-04-04T03:10:02;32.80;51.40
18575;DHT22;9417;16.484;102.872;2023-04-04T03:12:09;33.00;51.50
18575;DHT22;9417;16.484;102.872;2023-04-04T03:14:18;33.00;47.90
18575;DHT22;9417;16.484;102.872;2023-04-04T03:16:26;33.20;49.80
18575;DHT22;9417;16.484;102.872;2023-04-04T03:18:34;33.30;49.90
18575;DHT22;9417;16.484;102.872;2023-04-04T03:20:41;33.40;49.40
18575;DHT22;9417;16.484;102.872;2023-04-04T03:22:48;33.50;49.50
18575;DHT22;9417;16.484;102.872;2023-04-04T03:24:56;33.50;47.40
18575;DHT22;9417;16.484;102.872;2023-04-04T03:27:03;33.60;48.30
18575;DHT22;9417;16.484;102.872;2023-04-04T03:29:10;33.70;48.10
18575;DHT22;9417;16.484;102.872;2023-04-04T03:31:20;33.80;48.50
18575;DHT22;9417;16.484;102.872;2023-04-04T03:33:28;33.90;47.90
18575;DHT22;9417;16.484;102.872;2023-04-04T03:35:37;34.00;47.70
18575;DHT22;9417;16.484;102.872;2023-04-04T03:37:45;34.10;47.50
18575;DHT22;9417;16.484;102.872;2023-04-04T03:39:52;34.20;47.90
18575;DHT22;9417;16.484;102.872;2023-04-04T03:41:59;34.20;47.80
18575;DHT22;9417;16.484;102.872;2023-04-04T03:44:08;34.30;46.80
18575;DHT22;9417;16.484;102.872;2023-04-04T03:46:15;34.40;46.80
18575;DHT22;9417;16.484;102.872;2023-04-04T03:48:24;34.50;46.40
18575;DHT22;9417;16.484;102.872;2023-04-04T03:50:31;34.60;46.20
18575;DHT22;9417;16.484;102.872;2023-04-04T03:52:38;34.60;46.40
18575;DHT22;9417;16.484;102.872;2023-04-04T03:54:45;34.70;46.30
18575;DHT22;9417;16.484;102.872;2023-04-04T03:56:53;34.70;45.30
18575;DHT22;9417;16.484;102.872;2023-04-04T03:59:00;34.60;44.00
18575;DHT22;9417;16.484;102.872;2023-04-04T04:01:08;34.70;45.00
18575;DHT22;9417;16.484;102.872;2023-04-04T04:03:15;34.80;44.80
18575;DHT22;9417;16.484;102.872;2023-04-04T04:05:24;34.80;44.50
18575;DHT22;9417;16.484;102.872;2023-04-04T04:07:31;34.80;44.50
18575;DHT22;9417;16.484;102.872;2023-04-04T04:09:39;34.80;45.10
18575;DHT22;9417;16.484;102.872;2023-04-04T04:11:45;34.90;44.90
18575;DHT22;9417;16.484;102.872;2023-04-04T04:13:53;35.00;44.80
18575;DHT22;9417;16.484;102.872;2023-04-04T04:16:00;35.10;45.40
18575;DHT22;9417;16.484;102.872;2023-04-04T04:18:08;35.20;45.10
18575;DHT22;9417;16.484;102.872;2023-04-04T04:20:16;35.20;45.30
18575;DHT22;9417;16.484;102.872;2023-04-04T04:22:28;35.30;44.50
18575;DHT22;9417;16.484;102.872;2023-04-04T04:24:36;35.30;45.10
18575;DHT22;9417;16.484;102.872;2023-04-04T04:26:44;35.40;45.20
18575;DHT22;9417;16.484;102.872;2023-04-04T04:28:51;35.50;44.90
18575;DHT22;9417;16.484;102.872;2023-04-04T04:31:09;35.50;43.70
18575;DHT22;9417;16.484;102.872;2023-04-04T04:33:28;35.60;44.10
18575;DHT22;9417;16.484;102.872;2023-04-04T04:35:38;35.60;43.10
18575;DHT22;9417;16.484;102.872;2023-04-04T04:37:47;35.70;43.70
18575;DHT22;9417;16.484;102.872;2023-04-04T04:39:56;35.70;43.50
18575;DHT22;9417;16.484;102.872;2023-04-04T04:42:16;35.70;43.50
18575;DHT22;9417;16.484;102.872;2023-04-04T04:44:29;35.70;44.10
18575;DHT22;9417;16.484;102.872;2023-04-04T04:46:36;35.70;46.60
18575;DHT22;9417;16.484;102.872;2023-04-04T04:48:49;35.60;45.30
18575;DHT22;9417;16.484;102.872;2023-04-04T04:51:01;35.70;45.10
18575;DHT22;9417;16.484;102.872;2023-04-04T04:53:19;35.80;43.00
18575;DHT22;9417;16.484;102.872;2023-04-04T04:55:26;35.80;44.30
18575;DHT22;9417;16.484;102.872;2023-04-04T04:57:43;35.90;44.40
18575;DHT22;9417;16.484;102.872;2023-04-04T04:59:59;36.00;44.10
18575;DHT22;9417;16.484;102.872;2023-04-04T05:02:08;36.10;43.90
18575;DHT22;9417;16.484;102.872;2023-04-04T05:04:21;36.20;44.20
18575;DHT22;9417;16.484;102.872;2023-04-04T05:06:36;36.30;43.80
18575;DHT22;9417;16.484;102.872;2023-04-04T05:08:47;36.40;44.10
18575;DHT22;9417;16.484;102.872;2023-04-04T05:11:05;36.40;44.20
18575;DHT22;9417;16.484;102.872;2023-04-04T05:13:12;36.50;43.80
18575;DHT22;9417;16.484;102.872;2023-04-04T05:15:22;36.50;44.00
18575;DHT22;9417;16.484;102.872;2023-04-04T05:17:29;36.60;43.60
18575;DHT22;9417;16.484;102.872;2023-04-04T05:19:39;36.70;43.30
18575;DHT22;9417;16.484;102.872;2023-04-04T05:21:50;36.70;43.00
18575;DHT22;9417;16.484;102.872;2023-04-04T05:24:14;36.70;42.00
18575;DHT22;9417;16.484;102.872;2023-04-04T05:26:22;36.70;42.00
18575;DHT22;9417;16.484;102.872;2023-04-04T05:28:31;36.70;42.10
18575;DHT22;9417;16.484;102.872;2023-04-04T05:30:41;36.80;42.40
18575;DHT22;9417;16.484;102.872;2023-04-04T05:32:55;36.80;42.90
18575;DHT22;9417;16.484;102.872;2023-04-04T05:35:05;36.90;43.00
18575;DHT22;9417;16.484;102.872;2023-04-04T05:37:13;36.90;43.00
18575;DHT22;9417;16.484;102.872;2023-04-04T05:39:26;36.90;43.60
18575;DHT22;9417;16.484;102.872;2023-04-04T05:41:38;36.90;43.70
18575;DHT22;9417;16.484;102.872;2023-04-04T05:43:50;36.90;43.80
18575;DHT22;9417;16.484;102.872;2023-04-04T05:45:59;37.00;44.00
18575;DHT22;9417;16.484;102.872;2023-04-04T05:48:13;37.00;41.20
18575;DHT22;9417;16.484;102.872;2023-04-04T05:50:27;37.10;43.00
18575;DHT22;9417;16.484;102.872;2023-04-04T05:52:38;37.10;42.90
18575;DHT22;9417;16.484;102.872;2023-04-04T05:54:50;37.20;43.10
18575;DHT22;9417;16.484;102.872;2023-04-04T05:57:02;37.10;43.40
18575;DHT22;9417;16.484;102.872;2023-04-04T05:59:14;37.00;43.00
18575;DHT22;9417;16.484;102.872;2023-04-04T06:01:36;36.90;42.00
18575;DHT22;9417;16.484;102.872;2023-04-04T06:03:53;36.90;42.80
18575;DHT22;9417;16.484;102.872;2023-04-04T06:06:02;36.80;43.20
18575;DHT22;9417;16.484;102.872;2023-04-04T06:08:09;36.70;43.00
18575;DHT22;9417;16.484;102.872;2023-04-04T06:10:18;36.70;43.50
18575;DHT22;9417;16.484;102.872;2023-04-04T06:12:26;36.70;43.40
18575;DHT22;9417;16.484;102.872;2023-04-04T06:14:34;36.70;43.40
18575;DHT22;9417;16.484;102.872;2023-04-04T06:16:43;36.90;42.90
18575;DHT22;9417;16.484;102.872;2023-04-04T06:18:51;36.90;42.80
18575;DHT22;9417;16.484;102.872;2023-04-04T06:20:58;37.00;42.10
18575;DHT22;9417;16.484;102.872;2023-04-04T06:23:05;36.90;41.60
18575;DHT22;9417;16.484;102.872;2023-04-04T06:25:19;36.80;41.90
18575;DHT22;9417;16.484;102.872;2023-04-04T06:27:27;36.80;41.80
18575;DHT22;9417;16.484;102.872;2023-04-04T06:29:37;36.90;41.70
18575;DHT22;9417;16.484;102.872;2023-04-04T06:31:45;37.00;41.50
18575;DHT22;9417;16.484;102.872;2023-04-04T06:33:58;37.00;41.60
18575;DHT22;9417;16.484;102.872;2023-04-04T06:36:11;36.90;41.50
18575;DHT22;9417;16.484;102.872;2023-04-04T06:38:18;36.80;41.50
18575;DHT22;9417;16.484;102.872;2023-04-04T06:40:28;36.80;40.90
18575;DHT22;9417;16.484;102.872;2023-04-04T06:42:35;36.90;41.80
18575;DHT22;9417;16.484;102.872;2023-04-04T06:44:42;36.90;41.40
18575;DHT22;9417;16.484;102.872;2023-04-04T06:46:50;37.00;41.50
18575;DHT22;9417;16.484;102.872;2023-04-04T06:48:59;37.00;40.80
18575;DHT22;9417;16.484;102.872;2023-04-04T06:51:07;36.90;41.00
18575;DHT22;9417;16.484;102.872;2023-04-04T06:53:19;36.70;40.40
18575;DHT22;9417;16.484;102.872;2023-04-04T06:55:29;36.60;40.90
18575;DHT22;9417;16.484;102.872;2023-04-04T06:57:36;36.50;41.00
18575;DHT22;9417;16.484;102.872;2023-04-04T06:59:43;36.50;41.30
18575;DHT22;9417;16.484;102.872;2023-04-04T07:01:50;36.60;41.50
18575;DHT22;9417;16.484;102.872;2023-04-04T07:03:57;36.60;40.90
18575;DHT22;9417;16.484;102.872;2023-04-04T07:06:05;36.70;41.40
18575;DHT22;9417;16.484;102.872;2023-04-04T07:08:12;36.80;42.10
18575;DHT22;9417;16.484;102.872;2023-04-04T07:10:19;37.00;41.60
18575;DHT22;9417;16.484;102.872;2023-04-04T07:12:29;37.10;41.20
18575;DHT22;9417;16.484;102.872;2023-04-04T07:14:36;37.10;41.20
18575;DHT22;9417;16.484;102.872;2023-04-04T07:16:43;37.20;40.70
18575;DHT22;9417;16.484;102.872;2023-04-04T07:18:50;37.20;40.70
18575;DHT22;9417;16.484;102.872;2023-04-04T07:20:58;37.10;40.90
18575;DHT22;9417;16.484;102.872;2023-04-04T07:23:05;37.10;40.90
18575;DHT22;9417;16.484;102.872;2023-04-04T07:25:12;37.10;40.80
18575;DHT22;9417;16.484;102.872;2023-04-04T07:27:19;37.10;40.40
18575;DHT22;9417;16.484;102.872;2023-04-04T07:29:28;37.20;40.40
18575;DHT22;9417;16.484;102.872;2023-04-04T07:31:35;37.10;40.00
18575;DHT22;9417;16.484;102.872;2023-04-04T07:33:42;37.20;39.10
18575;DHT22;9417;16.484;102.872;2023-04-04T07:35:49;37.20;38.60
18575;DHT22;9417;16.484;102.872;2023-04-04T07:37:56;37.40;39.30
18575;DHT22;9417;16.484;102.872;2023-04-04T07:40:05;37.60;38.90
18575;DHT22;9417;16.484;102.872;2023-04-04T07:42:13;37.70;37.50
18575;DHT22;9417;16.484;102.872;2023-04-04T07:44:20;37.80;37.60
18575;DHT22;9417;16.484;102.872;2023-04-04T07:46:29;37.90;37.50
18575;DHT22;9417;16.484;102.872;2023-04-04T07:48:36;37.90;37.60
18575;DHT22;9417;16.484;102.872;2023-04-04T07:50:43;37.90;37.50
18575;DHT22;9417;16.484;102.872;2023-04-04T07:52:50;38.00;36.90
18575;DHT22;9417;16.484;102.872;2023-04-04T07:54:59;38.00;36.90
18575;DHT22;9417;16.484;102.872;2023-04-04T07:57:07;38.10;37.10
18575;DHT22;9417;16.484;102.872;2023-04-04T07:59:15;38.20;37.10
18575;DHT22;9417;16.484;102.872;2023-04-04T08:01:22;38.20;37.20
18575;DHT22;9417;16.484;102.872;2023-04-04T08:03:31;38.30;36.60
18575;DHT22;9417;16.484;102.872;2023-04-04T08:05:39;38.30;35.80
18575;DHT22;9417;16.484;102.872;2023-04-04T08:07:47;38.30;35.50
18575;DHT22;9417;16.484;102.872;2023-04-04T08:09:54;38.10;34.40
18575;DHT22;9417;16.484;102.872;2023-04-04T08:12:01;38.00;35.40
18575;DHT22;9417;16.484;102.872;2023-04-04T08:14:09;37.90;35.60
18575;DHT22;9417;16.484;102.872;2023-04-04T08:16:16;37.90;35.50
18575;DHT22;9417;16.484;102.872;2023-04-04T08:18:23;38.00;35.80
18575;DHT22;9417;16.484;102.872;2023-04-04T08:20:32;38.00;35.80
18575;DHT22;9417;16.484;102.872;2023-04-04T08:22:40;38.10;35.90
18575;DHT22;9417;16.484;102.872;2023-04-04T08:24:48;38.20;35.40
18575;DHT22;9417;16.484;102.872;2023-04-04T08:26:54;38.30;34.60
18575;DHT22;9417;16.484;102.872;2023-04-04T08:29:08;38.30;34.70
18575;DHT22;9417;16.484;102.872;2023-04-04T08:31:15;38.30;35.00
18575;DHT22;9417;16.484;102.872;2023-04-04T08:33:23;38.30;35.20
18575;DHT22;9417;16.484;102.872;2023-04-04T08:35:48;38.40;35.10
18575;DHT22;9417;16.484;102.872;2023-04-04T08:37:56;38.40;35.00
18575;DHT22;9417;16.484;102.872;2023-04-04T08:40:07;38.30;35.10
18575;DHT22;9417;16.484;102.872;2023-04-04T08:42:15;38.20;35.50
18575;DHT22;9417;16.484;102.872;2023-04-04T08:44:25;38.10;35.60
18575;DHT22;9417;16.484;102.872;2023-04-04T08:46:34;38.00;35.40
18575;DHT22;9417;16.484;102.872;2023-04-04T08:48:43;38.00;34.80
18575;DHT22;9417;16.484;102.872;2023-04-04T08:50:52;38.00;35.10
18575;DHT22;9417;16.484;102.872;2023-04-04T08:53:01;38.00;35.30
18575;DHT22;9417;16.484;102.872;2023-04-04T08:55:10;37.90;35.60
18575;DHT22;9417;16.484;102.872;2023-04-04T08:57:18;37.90;35.70
18575;DHT22;9417;16.484;102.872;2023-04-04T08:59:26;37.70;35.60
18575;DHT22;9417;16.484;102.872;2023-04-04T09:01:33;37.70;35.60
18575;DHT22;9417;16.484;102.872;2023-04-04T09:03:41;37.70;35.60
18575;DHT22;9417;16.484;102.872;2023-04-04T09:05:50;37.70;35.10
18575;DHT22;9417;16.484;102.872;2023-04-04T09:07:58;37.60;35.30
18575;DHT22;9417;16.484;102.872;2023-04-04T09:10:08;37.60;34.70
18575;DHT22;9417;16.484;102.872;2023-04-04T09:12:16;37.60;35.20
18575;DHT22;9417;16.484;102.872;2023-04-04T09:14:24;37.60;35.20
18575;DHT22;9417;16.484;102.872;2023-04-04T09:16:32;37.60;35.00
18575;DHT22;9417;16.484;102.872;2023-04-04T09:18:40;37.50;35.10
18575;DHT22;9417;16.484;102.872;2023-04-04T09:20:47;37.60;35.10
18575;DHT22;9417;16.484;102.872;2023-04-04T09:22:57;37.60;34.90
18575;DHT22;9417;16.484;102.872;2023-04-04T09:25:08;37.60;34.70
18575;DHT22;9417;16.484;102.872;2023-04-04T09:27:16;37.60;34.40
18575;DHT22;9417;16.484;102.872;2023-04-04T09:29:23;37.60;34.20
18575;DHT22;9417;16.484;102.872;2023-04-04T09:31:31;37.50;34.00
18575;DHT22;9417;16.484;102.872;2023-04-04T09:33:38;37.50;34.10
18575;DHT22;9417;16.484;102.872;2023-04-04T09:35:48;37.50;34.60
18575;DHT22;9417;16.484;102.872;2023-04-04T09:37:58;37.40;34.60
18575;DHT22;9417;16.484;102.872;2023-04-04T09:40:06;37.30;34.80
18575;DHT22;9417;16.484;102.872;2023-04-04T09:42:15;37.30;35.10
18575;DHT22;9417;16.484;102.872;2023-04-04T09:44:23;37.30;35.40
18575;DHT22;9417;16.484;102.872;2023-04-04T09:46:32;37.20;35.00
18575;DHT22;9417;16.484;102.872;2023-04-04T09:48:48;37.20;35.00
18575;DHT22;9417;16.484;102.872;2023-04-04T09:50:57;37.20;34.60
18575;DHT22;9417;16.484;102.872;2023-04-04T09:53:06;37.10;35.00
18575;DHT22;9417;16.484;102.872;2023-04-04T09:55:14;37.10;35.10
18575;DHT22;9417;16.484;102.872;2023-04-04T09:57:22;37.10;34.90
18575;DHT22;9417;16.484;102.872;2023-04-04T09:59:29;37.00;34.90
18575;DHT22;9417;16.484;102.872;2023-04-04T10:01:37;37.00;35.10
18575;DHT22;9417;16.484;102.872;2023-04-04T10:03:51;37.00;34.80
18575;DHT22;9417;16.484;102.872;2023-04-04T10:05:59;36.80;34.30
18575;DHT22;9417;16.484;102.872;2023-04-04T10:08:19;36.80;34.60
18575;DHT22;9417;16.484;102.872;2023-04-04T10:10:27;36.80;34.20
18575;DHT22;9417;16.484;102.872;2023-04-04T10:12:37;36.70;34.70
18575;DHT22;9417;16.484;102.872;2023-04-04T10:14:47;36.70;34.70
18575;DHT22;9417;16.484;102.872;2023-04-04T10:16:56;36.70;34.90
18575;DHT22;9417;16.484;102.872;2023-04-04T10:19:04;36.70;34.80
18575;DHT22;9417;16.484;102.872;2023-04-04T10:21:12;36.60;34.70
18575;DHT22;9417;16.484;102.872;2023-04-04T10:23:23;36.60;34.70
18575;DHT22;9417;16.484;102.872;2023-04-04T10:25:31;36.50;34.80
18575;DHT22;9417;16.484;102.872;2023-04-04T10:27:40;36.50;35.10
18575;DHT22;9417;16.484;102.872;2023-04-04T10:29:47;36.50;35.20
18575;DHT22;9417;16.484;102.872;2023-04-04T10:31:58;36.40;35.30
18575;DHT22;9417;16.484;102.872;2023-04-04T10:34:13;36.40;35.30
18575;DHT22;9417;16.484;102.872;2023-04-04T10:36:23;36.30;35.20
18575;DHT22;9417;16.484;102.872;2023-04-04T10:38:37;36.30;35.30
18575;DHT22;9417;16.484;102.872;2023-04-04T10:40:48;36.20;35.30
18575;DHT22;9417;16.484;102.872;2023-04-04T10:42:56;36.20;35.50
18575;DHT22;9417;16.484;102.872;2023-04-04T10:45:07;36.10;35.60
18575;DHT22;9417;16.484;102.872;2023-04-04T10:47:24;36.10;35.60
18575;DHT22;9417;16.484;102.872;2023-04-04T10:49:34;36.00;35.80
18575;DHT22;9417;16.484;102.872;2023-04-04T10:51:41;36.00;36.00
18575;DHT22;9417;16.484;102.872;2023-04-04T10:54:01;35.90;36.20
18575;DHT22;9417;16.484;102.872;2023-04-04T10:56:09;35.80;36.10
18575;DHT22;9417;16.484;102.872;2023-04-04T10:58:17;35.80;36.20
18575;DHT22;9417;16.484;102.872;2023-04-04T11:00:24;35.80;36.30
18575;DHT22;9417;16.484;102.872;2023-04-04T11:02:48;35.70;36.40
18575;DHT22;9417;16.484;102.872;2023-04-04T11:05:09;35.70;36.20
18575;DHT22;9417;16.484;102.872;2023-04-04T11:07:17;35.70;36.40
18575;DHT22;9417;16.484;102.872;2023-04-04T11:09:50;35.60;36.70
18575;DHT22;9417;16.484;102.872;2023-04-04T11:12:10;35.50;36.70
18575;DHT22;9417;16.484;102.872;2023-04-04T11:14:28;35.50;36.90
18575;DHT22;9417;16.484;102.872;2023-04-04T11:16:46;35.40;37.10
18575;DHT22;9417;16.484;102.872;2023-04-04T11:18:59;35.40;37.10
18575;DHT22;9417;16.484;102.872;2023-04-04T11:21:07;35.30;37.30
18575;DHT22;9417;16.484;102.872;2023-04-04T11:23:16;35.30;37.50
18575;DHT22;9417;16.484;102.872;2023-04-04T11:25:29;35.30;37.60
18575;DHT22;9417;16.484;102.872;2023-04-04T11:27:36;35.20;37.60
18575;DHT22;9417;16.484;102.872;2023-04-04T11:29:50;35.20;37.80
18575;DHT22;9417;16.484;102.872;2023-04-04T11:31:58;35.20;37.90
18575;DHT22;9417;16.484;102.872;2023-04-04T11:34:06;35.10;38.00
18575;DHT22;9417;16.484;102.872;2023-04-04T11:36:24;35.00;38.10
18575;DHT22;9417;16.484;102.872;2023-04-04T11:38:50;35.00;38.20
18575;DHT22;9417;16.484;102.872;2023-04-04T11:41:00;35.00;38.50
18575;DHT22;9417;16.484;102.872;2023-04-04T11:43:08;34.90;38.50
18575;DHT22;9417;16.484;102.872;2023-04-04T11:45:19;34.90;38.70
18575;DHT22;9417;16.484;102.872;2023-04-04T11:47:26;34.80;38.90
18575;DHT22;9417;16.484;102.872;2023-04-04T11:49:35;34.80;39.10
18575;DHT22;9417;16.484;102.872;2023-04-04T11:51:43;34.70;39.40
18575;DHT22;9417;16.484;102.872;2023-04-04T11:53:51;34.70;39.90
18575;DHT22;9417;16.484;102.872;2023-04-04T11:56:00;34.60;39.90
18575;DHT22;9417;16.484;102.872;2023-04-04T11:58:10;34.50;40.50
18575;DHT22;9417;16.484;102.872;2023-04-04T12:00:29;34.40;41.60
18575;DHT22;9417;16.484;102.872;2023-04-04T12:02:36;34.30;42.70
18575;DHT22;9417;16.484;102.872;2023-04-04T12:04:45;34.20;43.10
18575;DHT22;9417;16.484;102.872;2023-04-04T12:06:54;34.10;43.20
18575;DHT22;9417;16.484;102.872;2023-04-04T12:09:02;34.00;42.80
18575;DHT22;9417;16.484;102.872;2023-04-04T12:11:15;34.00;42.40
18575;DHT22;9417;16.484;102.872;2023-04-04T12:13:30;33.90;42.20
18575;DHT22;9417;16.484;102.872;2023-04-04T12:15:37;33.90;42.10
18575;DHT22;9417;16.484;102.872;2023-04-04T12:17:45;33.80;42.30
18575;DHT22;9417;16.484;102.872;2023-04-04T12:19:52;33.70;43.00
18575;DHT22;9417;16.484;102.872;2023-04-04T12:21:59;33.70;44.20
18575;DHT22;9417;16.484;102.872;2023-04-04T12:24:08;33.60;45.10
18575;DHT22;9417;16.484;102.872;2023-04-04T12:26:17;33.50;44.70
18575;DHT22;9417;16.484;102.872;2023-04-04T12:28:24;33.40;44.20
18575;DHT22;9417;16.484;102.872;2023-04-04T12:30:31;33.40;44.00
18575;DHT22;9417;16.484;102.872;2023-04-04T12:32:39;33.30;44.50
18575;DHT22;9417;16.484;102.872;2023-04-04T12:34:47;33.30;44.30
18575;DHT22;9417;16.484;102.872;2023-04-04T12:36:56;33.30;44.20
18575;DHT22;9417;16.484;102.872;2023-04-04T12:39:06;33.20;44.40
18575;DHT22;9417;16.484;102.872;2023-04-04T12:41:18;33.20;45.10
18575;DHT22;9417;16.484;102.872;2023-04-04T12:43:27;33.20;45.50
18575;DHT22;9417;16.484;102.872;2023-04-04T12:45:38;33.20;45.90
18575;DHT22;9417;16.484;102.872;2023-04-04T12:47:52;33.10;46.50
18575;DHT22;9417;16.484;102.872;2023-04-04T12:49:59;33.10;47.40
18575;DHT22;9417;16.484;102.872;2023-04-04T12:52:06;33.00;47.60
18575;DHT22;9417;16.484;102.872;2023-04-04T12:54:26;33.00;47.00
18575;DHT22;9417;16.484;102.872;2023-04-04T12:56:36;33.00;46.60
18575;DHT22;9417;16.484;102.872;2023-04-04T12:58:46;33.00;46.20
18575;DHT22;9417;16.484;102.872;2023-04-04T13:00:54;33.00;46.30
18575;DHT22;9417;16.484;102.872;2023-04-04T13:03:01;32.90;46.30
18575;DHT22;9417;16.484;102.872;2023-04-04T13:05:09;32.90;46.40
18575;DHT22;9417;16.484;102.872;2023-04-04T13:07:21;32.90;46.60
18575;DHT22;9417;16.484;102.872;2023-04-04T13:09:28;32.90;46.60
18575;DHT22;9417;16.484;102.872;2023-04-04T13:11:59;32.90;46.50
18575;DHT22;9417;16.484;102.872;2023-04-04T13:14:07;32.80;46.10
18575;DHT22;9417;16.484;102.872;2023-04-04T13:16:30;32.80;45.80
18575;DHT22;9417;16.484;102.872;2023-04-04T13:18:40;32.80;45.60
18575;DHT22;9417;16.484;102.872;2023-04-04T13:20:47;32.80;45.70
18575;DHT22;9417;16.484;102.872;2023-04-04T13:22:57;32.80;45.80
18575;DHT22;9417;16.484;102.872;2023-04-04T13:25:05;32.80;45.90